createdAt,value
2019-01-20T00:00:39.367Z,-0.30
2019-01-20T00:03:07.639Z,-0.30
2019-01-20T00:05:36.880Z,-0.40
2019-01-20T00:08:05.418Z,-0.40
2019-01-20T00:10:34.153Z,-0.40
2019-01-20T00:13:02.327Z,-0.40
2019-01-20T00:15:32.265Z,-0.40
2019-01-20T00:18:00.684Z,-0.50
2019-01-20T00:20:29.319Z,-0.50
2019-01-20T00:22:57.458Z,-0.50
2019-01-20T00:25:25.633Z,-0.50
2019-01-20T00:27:53.884Z,-0.40
2019-01-20T00:30:22.419Z,-0.30
2019-01-20T00:32:50.751Z,-0.30
2019-01-20T00:35:18.964Z,-0.30
2019-01-20T00:37:47.370Z,-0.20
2019-01-20T00:40:15.766Z,-0.10
2019-01-20T00:42:44.872Z,-0.20
2019-01-20T00:45:15.184Z,-0.20
2019-01-20T00:47:43.310Z,-0.20
2019-01-20T00:50:13.369Z,-0.20
2019-01-20T00:52:41.955Z,-0.20
2019-01-20T00:55:13.898Z,-0.30
2019-01-20T00:57:43.058Z,-0.30
2019-01-20T01:00:19.747Z,-0.30
2019-01-20T01:02:47.962Z,-0.30
2019-01-20T01:05:18.434Z,-0.30
2019-01-20T01:07:46.844Z,-0.40
2019-01-20T01:10:15.491Z,-0.40
2019-01-20T01:12:44.002Z,-0.50
2019-01-20T01:15:12.661Z,-0.50
2019-01-20T01:17:40.980Z,-0.50
2019-01-20T01:20:11.832Z,-0.50
2019-01-20T01:22:40.182Z,-0.50
2019-01-20T01:25:10.706Z,-0.60
2019-01-20T01:27:38.883Z,-0.60
2019-01-20T01:30:12.790Z,-0.60
2019-01-20T01:32:40.926Z,-0.50
2019-01-20T01:35:09.818Z,-0.60
2019-01-20T01:37:38.254Z,-0.60
2019-01-20T01:40:08.527Z,-0.60
2019-01-20T01:42:36.711Z,-0.60
2019-01-20T01:45:09.182Z,-0.60
2019-01-20T01:47:37.295Z,-0.60
2019-01-20T01:50:06.492Z,-0.70
2019-01-20T01:52:34.926Z,-0.70
2019-01-20T01:55:03.938Z,-0.70
2019-01-20T01:57:32.072Z,-0.80
2019-01-20T02:00:01.608Z,-0.90
2019-01-20T02:02:30.399Z,-1.00
2019-01-20T02:04:58.618Z,-1.00
2019-01-20T02:07:26.735Z,-1.10
2019-01-20T02:09:54.972Z,-1.10
2019-01-20T02:12:24.926Z,-1.20
2019-01-20T02:14:53.202Z,-1.20
2019-01-20T02:17:21.635Z,-1.10
2019-01-20T02:19:49.985Z,-1.10
2019-01-20T02:22:18.094Z,-1.10
2019-01-20T02:24:46.226Z,-1.00
2019-01-20T02:27:14.384Z,-1.10
2019-01-20T02:29:42.508Z,-1.10
2019-01-20T02:32:10.765Z,-1.20
2019-01-20T02:34:38.838Z,-1.10
2019-01-20T02:37:08.210Z,-1.10
2019-01-20T02:39:36.386Z,-1.10
2019-01-20T02:42:04.861Z,-1.00
2019-01-20T02:44:33.342Z,-1.00
2019-01-20T02:47:01.785Z,-1.00
2019-01-20T02:49:30.002Z,-1.00
2019-01-20T02:51:58.275Z,-1.10
2019-01-20T02:54:26.392Z,-1.20
2019-01-20T02:56:54.730Z,-1.40
2019-01-20T02:59:22.914Z,-1.50
2019-01-20T03:01:51.441Z,-1.40
2019-01-20T03:04:19.506Z,-1.30
2019-01-20T03:06:47.805Z,-1.30
2019-01-20T03:09:16.070Z,-1.10
2019-01-20T03:11:44.119Z,-1.20
2019-01-20T03:14:12.173Z,-1.20
2019-01-20T03:16:40.260Z,-1.20
2019-01-20T03:19:08.626Z,-1.20
2019-01-20T03:21:36.832Z,-1.20
2019-01-20T03:24:05.042Z,-1.10
2019-01-20T03:26:33.735Z,-1.20
2019-01-20T03:29:01.863Z,-1.20
2019-01-20T03:31:30.257Z,-1.10
2019-01-20T03:33:58.366Z,-1.10
2019-01-20T03:36:26.510Z,-1.10
2019-01-20T03:38:54.645Z,-1.20
2019-01-20T03:41:22.851Z,-1.20
2019-01-20T03:43:51.127Z,-1.20
2019-01-20T03:46:19.474Z,-1.10
2019-01-20T03:48:47.558Z,-1.10
2019-01-20T03:51:15.925Z,-1.10
2019-01-20T03:53:44.055Z,-1.20
2019-01-20T03:56:12.143Z,-1.20
2019-01-20T03:58:40.235Z,-1.20
2019-01-20T04:01:08.544Z,-1.20
2019-01-20T04:03:36.690Z,-1.20
2019-01-20T04:06:05.252Z,-1.20
2019-01-20T04:08:33.909Z,-1.10
2019-01-20T04:11:02.407Z,-1.10
2019-01-20T04:13:30.610Z,-1.20
2019-01-20T04:15:58.679Z,-1.20
2019-01-20T04:18:27.195Z,-1.20
2019-01-20T04:20:55.405Z,-1.20
2019-01-20T04:23:23.546Z,-1.20
2019-01-20T04:25:51.679Z,-1.10
2019-01-20T04:28:20.169Z,-1.20
2019-01-20T04:30:48.855Z,-1.20
2019-01-20T04:33:17.024Z,-1.20
2019-01-20T04:35:45.232Z,-1.20
2019-01-20T04:38:13.408Z,-1.10
2019-01-20T04:40:41.951Z,-1.20
2019-01-20T04:43:10.067Z,-1.30
2019-01-20T04:45:39.223Z,-1.40
2019-01-20T04:48:07.819Z,-1.40
2019-01-20T04:50:36.428Z,-1.40
2019-01-20T04:53:04.487Z,-1.30
2019-01-20T04:55:34.562Z,-1.30
2019-01-20T04:58:04.101Z,-1.20
2019-01-20T05:00:32.402Z,-1.20
2019-01-20T05:03:00.740Z,-1.10
2019-01-20T05:05:28.954Z,-1.10
2019-01-20T05:07:57.138Z,-1.10
2019-01-20T05:10:25.377Z,-1.10
2019-01-20T05:12:53.643Z,-1.10
2019-01-20T05:15:23.804Z,-1.10
2019-01-20T05:17:52.114Z,-1.10
2019-01-20T05:20:20.340Z,-1.10
2019-01-20T05:22:48.737Z,-1.10
2019-01-20T05:25:17.026Z,-1.00
2019-01-20T05:27:45.408Z,-1.00
2019-01-20T05:30:28.021Z,-1.10
2019-01-20T05:32:56.140Z,-1.20
2019-01-20T05:35:24.649Z,-1.20
2019-01-20T05:37:52.973Z,-1.10
2019-01-20T05:40:21.680Z,-1.20
2019-01-20T05:42:49.770Z,-1.30
2019-01-20T05:45:22.000Z,-1.40
2019-01-20T05:47:50.170Z,-1.40
2019-01-20T05:50:18.771Z,-1.30
2019-01-20T05:52:46.931Z,-1.30
2019-01-20T05:55:15.373Z,-1.20
2019-01-20T05:57:43.601Z,-1.20
2019-01-20T06:00:22.138Z,-1.10
2019-01-20T06:02:50.365Z,-1.10
2019-01-20T06:05:19.771Z,-1.10
2019-01-20T06:07:47.965Z,-1.10
2019-01-20T06:10:16.322Z,-1.10
2019-01-20T06:12:44.520Z,-1.10
2019-01-20T06:15:15.805Z,-1.10
2019-01-20T06:17:44.008Z,-1.10
2019-01-20T06:20:12.950Z,-1.10
2019-01-20T06:22:41.160Z,-1.10
2019-01-20T06:25:09.283Z,-1.10
2019-01-20T06:27:37.656Z,-1.10
2019-01-20T06:30:12.795Z,-1.10
2019-01-20T06:32:41.030Z,-1.10
2019-01-20T06:35:09.165Z,-1.10
2019-01-20T06:37:37.183Z,-1.10
2019-01-20T06:40:06.202Z,-1.10
2019-01-20T06:42:34.529Z,-1.00
2019-01-20T06:45:03.476Z,-1.00
2019-01-20T06:47:31.545Z,-1.00
2019-01-20T06:49:59.594Z,-1.00
2019-01-20T06:52:27.613Z,-1.00
2019-01-20T06:54:55.767Z,-1.00
2019-01-20T06:57:24.015Z,-1.00
2019-01-20T06:59:52.086Z,-1.00
2019-01-20T07:02:20.292Z,-1.00
2019-01-20T07:04:48.536Z,-1.00
2019-01-20T07:07:16.835Z,-1.00
2019-01-20T07:09:45.223Z,-1.10
2019-01-20T07:12:13.420Z,-1.10
2019-01-20T07:14:41.509Z,-1.10
2019-01-20T07:17:09.580Z,-1.10
2019-01-20T07:19:38.015Z,-1.20
2019-01-20T07:22:06.224Z,-1.20
2019-01-20T07:24:34.407Z,-1.20
2019-01-20T07:27:02.477Z,-1.20
2019-01-20T07:29:30.718Z,-1.20
2019-01-20T07:31:58.832Z,-1.20
2019-01-20T07:34:27.538Z,-1.20
2019-01-20T07:36:55.880Z,-1.20
2019-01-20T07:39:24.018Z,-1.20
2019-01-20T07:41:52.197Z,-1.20
2019-01-20T07:44:20.335Z,-1.20
2019-01-20T07:46:48.548Z,-1.20
2019-01-20T07:49:16.996Z,-1.20
2019-01-20T07:51:45.160Z,-1.20
2019-01-20T07:54:13.407Z,-1.20
2019-01-20T07:56:41.801Z,-1.20
2019-01-20T07:59:09.944Z,-1.20
2019-01-20T08:01:38.147Z,-1.20
2019-01-20T08:04:06.483Z,-1.20
2019-01-20T08:06:34.557Z,-1.20
2019-01-20T08:09:05.903Z,-1.20
2019-01-20T08:11:33.988Z,-1.30
2019-01-20T08:14:02.314Z,-1.30
2019-01-20T08:16:30.609Z,-1.30
2019-01-20T08:18:58.842Z,-1.30
2019-01-20T08:21:27.075Z,-1.20
2019-01-20T08:23:55.186Z,-1.20
2019-01-20T08:26:23.532Z,-1.20
2019-01-20T08:28:51.791Z,-1.10
2019-01-20T08:31:20.031Z,-1.10
2019-01-20T08:33:48.312Z,-1.10
2019-01-20T08:36:16.403Z,-1.10
2019-01-20T08:38:44.716Z,-1.20
2019-01-20T08:41:12.923Z,-1.10
2019-01-20T08:43:41.116Z,-1.10
2019-01-20T08:46:39.175Z,-1.10
2019-01-20T08:49:07.481Z,-1.10
2019-01-20T08:51:38.566Z,-1.00
2019-01-20T08:54:06.680Z,-1.00
2019-01-20T08:56:35.024Z,-1.00
2019-01-20T08:59:03.249Z,-0.90
2019-01-20T09:01:32.897Z,-1.00
2019-01-20T09:04:01.192Z,-1.20
2019-01-20T09:06:30.024Z,-1.40
2019-01-20T09:08:58.454Z,-1.40
2019-01-20T09:11:26.753Z,-1.20
2019-01-20T09:13:54.990Z,-1.10
2019-01-20T09:16:23.208Z,-0.90
2019-01-20T09:18:51.350Z,-0.80
2019-01-20T09:21:19.632Z,-0.60
2019-01-20T09:23:47.749Z,-0.50
2019-01-20T09:26:15.805Z,-0.50
2019-01-20T09:28:43.906Z,-0.50
2019-01-20T09:31:12.325Z,-0.50
2019-01-20T09:33:40.975Z,-0.50
2019-01-20T09:36:09.113Z,-0.30
2019-01-20T09:38:37.284Z,0.10
2019-01-20T09:41:05.428Z,0.50
2019-01-20T09:43:33.665Z,0.90
2019-01-20T09:46:03.029Z,1.50
2019-01-20T09:48:31.159Z,1.70
2019-01-20T09:50:59.253Z,1.80
2019-01-20T09:53:27.332Z,1.90
2019-01-20T09:55:55.557Z,2.00
2019-01-20T09:58:23.991Z,2.00
2019-01-20T10:00:52.363Z,2.10
2019-01-20T10:03:20.549Z,2.20
2019-01-20T10:05:49.042Z,2.10
2019-01-20T10:08:17.484Z,1.70
2019-01-20T10:10:46.938Z,1.40
2019-01-20T10:13:15.372Z,1.20
2019-01-20T10:15:44.690Z,0.80
2019-01-20T10:18:13.147Z,0.60
2019-01-20T10:20:41.766Z,0.50
2019-01-20T10:23:10.599Z,0.10
2019-01-20T10:25:38.907Z,-0.10
2019-01-20T10:28:10.325Z,-0.20
2019-01-20T10:30:38.886Z,-0.30
2019-01-20T10:33:07.088Z,-0.40
2019-01-20T10:35:51.358Z,-0.50
2019-01-20T10:38:19.456Z,-0.60
2019-01-20T10:40:47.914Z,-0.50
2019-01-20T10:43:16.150Z,-0.60
2019-01-20T10:45:44.491Z,-0.40
2019-01-20T10:48:12.793Z,-0.30
2019-01-20T10:50:41.349Z,-0.10
2019-01-20T10:53:10.386Z,0.00
2019-01-20T10:55:39.415Z,0.10
2019-01-20T10:58:08.011Z,0.00
2019-01-20T11:00:39.049Z,0.00
2019-01-20T11:03:08.494Z,0.00
2019-01-20T11:05:37.238Z,0.10
2019-01-20T11:08:05.623Z,0.20
2019-01-20T11:10:34.248Z,0.30
2019-01-20T11:13:03.042Z,0.10
2019-01-20T11:15:31.304Z,0.00
2019-01-20T11:17:59.438Z,0.10
2019-01-20T11:20:27.860Z,0.30
2019-01-20T11:22:57.390Z,0.40
2019-01-20T11:25:29.509Z,0.50
2019-01-20T11:27:57.879Z,0.60
2019-01-20T11:30:26.055Z,0.70
2019-01-20T11:32:54.169Z,0.80
2019-01-20T11:35:22.838Z,0.80
2019-01-20T11:37:51.426Z,0.90
2019-01-20T11:40:19.691Z,0.90
2019-01-20T11:42:48.245Z,0.90
2019-01-20T11:45:25.939Z,0.80
2019-01-20T11:50:42.118Z,0.60
2019-01-20T11:53:10.180Z,0.70
2019-01-20T11:55:38.613Z,0.70
2019-01-20T11:58:07.076Z,0.80
2019-01-20T12:00:40.735Z,0.90
2019-01-20T12:03:08.960Z,0.90
2019-01-20T12:05:40.828Z,0.80
2019-01-20T12:08:09.379Z,0.90
2019-01-20T12:10:37.886Z,0.80
2019-01-20T12:13:07.853Z,0.80
2019-01-20T12:15:36.350Z,0.90
2019-01-20T12:18:05.974Z,1.00
2019-01-20T12:20:34.263Z,1.20
2019-01-20T12:23:02.306Z,1.20
2019-01-20T12:25:30.369Z,1.10
2019-01-20T12:27:58.695Z,1.10
2019-01-20T12:30:29.698Z,1.10
2019-01-20T12:32:59.292Z,1.20
2019-01-20T12:35:27.462Z,1.20
2019-01-20T12:37:55.636Z,1.20
2019-01-20T12:40:54.693Z,1.30
2019-01-20T12:43:23.985Z,1.30
2019-01-20T12:45:53.198Z,1.30
2019-01-20T12:48:21.260Z,1.30
2019-01-20T12:50:49.677Z,1.30
2019-01-20T12:53:17.824Z,1.30
2019-01-20T12:55:45.982Z,1.40
2019-01-20T12:58:14.628Z,1.50
2019-01-20T13:00:43.003Z,1.50
2019-01-20T13:03:11.128Z,1.50
2019-01-20T13:05:39.297Z,1.50
2019-01-20T13:08:07.981Z,1.60
2019-01-20T13:10:36.288Z,1.60
2019-01-20T13:13:05.214Z,1.60
2019-01-20T13:15:33.551Z,1.60
2019-01-20T13:18:01.808Z,1.60
2019-01-20T13:20:30.018Z,1.60
2019-01-20T13:22:58.194Z,1.60
2019-01-20T13:25:29.482Z,1.50
2019-01-20T13:27:57.654Z,1.40
2019-01-20T13:30:28.044Z,1.40
2019-01-20T13:32:56.129Z,1.30
2019-01-20T13:35:26.198Z,1.30
2019-01-20T13:38:16.283Z,1.40
2019-01-20T13:40:53.383Z,1.40
2019-01-20T13:43:21.517Z,1.40
2019-01-20T13:45:49.711Z,1.50
2019-01-20T13:48:17.859Z,1.40
2019-01-20T13:50:46.370Z,1.30
2019-01-20T13:53:14.957Z,1.30
2019-01-20T13:55:43.138Z,1.20
2019-01-20T13:58:11.364Z,1.10
2019-01-20T14:00:39.549Z,1.10
2019-01-20T14:03:07.860Z,0.90
2019-01-20T14:05:35.955Z,0.60
2019-01-20T14:08:04.037Z,0.50
2019-01-20T14:10:32.159Z,0.40
2019-01-20T14:13:00.424Z,0.40
2019-01-20T14:15:28.666Z,0.30
2019-01-20T14:17:56.725Z,0.10
2019-01-20T14:20:24.930Z,0.00
2019-01-20T14:22:53.158Z,0.00
2019-01-20T14:25:23.179Z,0.00
2019-01-20T14:27:51.542Z,-0.10
2019-01-20T14:30:23.577Z,-0.20
2019-01-20T14:32:51.783Z,-0.40
2019-01-20T14:35:20.142Z,-0.40
2019-01-20T14:37:48.243Z,-0.40
2019-01-20T14:40:17.142Z,-0.40
2019-01-20T14:42:45.751Z,-0.40
2019-01-20T14:45:14.706Z,-0.40
2019-01-20T14:47:43.012Z,-0.40
2019-01-20T14:50:16.823Z,-0.40
2019-01-20T14:52:45.090Z,-0.40
2019-01-20T14:55:13.590Z,-0.40
2019-01-20T14:57:41.843Z,-0.40
2019-01-20T15:00:18.604Z,-0.40
2019-01-20T15:02:46.796Z,-0.50
2019-01-20T15:05:16.509Z,-0.50
2019-01-20T15:07:45.394Z,-0.50
2019-01-20T15:10:14.881Z,-0.50
2019-01-20T15:12:43.426Z,-0.50
2019-01-20T15:15:16.776Z,-0.50
2019-01-20T15:17:45.272Z,-0.50
2019-01-20T15:20:14.533Z,-0.50
2019-01-20T15:22:42.800Z,-0.50
2019-01-20T15:25:12.862Z,-0.50
2019-01-20T15:27:43.276Z,-0.50
2019-01-20T15:30:19.876Z,-0.60
2019-01-20T15:32:49.068Z,-0.60
2019-01-20T15:35:17.595Z,-0.70
2019-01-20T15:37:46.483Z,-0.70
2019-01-20T15:40:17.871Z,-0.70
2019-01-20T15:42:46.560Z,-0.80
2019-01-20T15:45:17.687Z,-0.80
2019-01-20T15:47:46.219Z,-0.80
2019-01-20T15:50:20.903Z,-0.80
2019-01-20T15:52:49.759Z,-0.80
2019-01-20T15:55:17.933Z,-0.80
2019-01-20T15:57:46.551Z,-0.90
2019-01-20T16:00:18.592Z,-0.90
2019-01-20T16:02:47.249Z,-1.00
2019-01-20T16:05:17.334Z,-1.00
2019-01-20T16:07:45.550Z,-1.10
2019-01-20T16:10:15.138Z,-1.10
2019-01-20T16:12:43.885Z,-1.10
2019-01-20T16:15:25.005Z,-1.10
2019-01-20T16:17:55.092Z,-1.20
2019-01-20T16:20:24.344Z,-1.20
2019-01-20T16:22:52.633Z,-1.20
2019-01-20T16:25:27.933Z,-1.30
2019-01-20T16:27:56.044Z,-1.40
2019-01-20T16:30:27.900Z,-1.40
2019-01-20T16:32:55.971Z,-1.40
2019-01-20T16:35:25.237Z,-1.40
2019-01-20T16:37:53.804Z,-1.50
2019-01-20T16:40:23.079Z,-1.50
2019-01-20T16:42:51.645Z,-1.50
2019-01-20T16:45:31.926Z,-1.40
2019-01-20T16:47:57.303Z,-1.40
2019-01-20T16:50:25.917Z,-1.40
2019-01-20T16:52:54.991Z,-1.40
2019-01-20T16:55:23.636Z,-1.40
2019-01-20T16:57:52.190Z,-1.40
2019-01-20T17:00:24.361Z,-1.50
2019-01-20T17:02:53.361Z,-1.60
2019-01-20T17:05:26.554Z,-1.60
2019-01-20T17:07:52.504Z,-1.60
2019-01-20T17:10:24.732Z,-1.60
2019-01-20T17:12:53.515Z,-1.50
2019-01-20T17:15:29.234Z,-1.50
2019-01-20T17:17:57.618Z,-1.50
2019-01-20T17:20:26.037Z,-1.50
2019-01-20T17:22:54.615Z,-1.60
2019-01-20T17:25:24.225Z,-1.60
2019-01-20T17:27:53.690Z,-1.60
2019-01-20T17:30:25.749Z,-1.70
2019-01-20T17:32:55.713Z,-1.70
2019-01-20T17:35:23.966Z,-1.70
2019-01-20T17:37:52.341Z,-1.70
2019-01-20T17:40:23.863Z,-1.70
2019-01-20T17:42:52.317Z,-1.80
2019-01-20T17:45:24.301Z,-1.80
2019-01-20T17:47:53.038Z,-1.90
2019-01-20T17:50:25.002Z,-1.90
2019-01-20T17:52:53.893Z,-1.90
2019-01-20T17:55:22.143Z,-1.80
2019-01-20T17:57:50.447Z,-1.80
2019-01-20T18:00:23.493Z,-1.70
2019-01-20T18:02:52.297Z,-1.80
2019-01-20T18:05:22.966Z,-1.80
2019-01-20T18:07:51.288Z,-1.70
2019-01-20T18:10:19.529Z,-1.70
2019-01-20T18:12:47.773Z,-1.60
2019-01-20T18:15:18.099Z,-1.70
2019-01-20T18:17:46.609Z,-1.60
2019-01-20T18:20:21.083Z,-1.60
2019-01-20T18:22:49.426Z,-1.60
2019-01-20T18:25:18.371Z,-1.70
2019-01-20T18:27:46.723Z,-1.80
2019-01-20T18:30:19.123Z,-1.80
2019-01-20T18:32:47.178Z,-1.80
2019-01-20T18:35:15.337Z,-1.80
2019-01-20T18:37:43.506Z,-1.80
2019-01-20T18:40:14.969Z,-1.70
2019-01-20T18:42:43.156Z,-1.70
2019-01-20T18:45:14.946Z,-1.70
2019-01-20T18:47:43.047Z,-1.70
2019-01-20T18:50:15.051Z,-1.70
2019-01-20T18:52:43.225Z,-1.70
2019-01-20T18:55:12.362Z,-1.70
2019-01-20T18:57:40.601Z,-1.70
2019-01-20T19:00:19.911Z,-1.80
2019-01-20T19:02:47.972Z,-1.70
2019-01-20T19:05:16.959Z,-1.70
2019-01-20T19:07:45.145Z,-1.70
2019-01-20T19:10:14.908Z,-1.60
2019-01-20T19:12:43.438Z,-1.60
2019-01-20T19:15:15.111Z,-1.60
2019-01-20T19:17:43.429Z,-1.60
2019-01-20T19:20:20.762Z,-1.80
2019-01-20T19:22:51.739Z,-1.80
2019-01-20T19:25:21.347Z,-1.90
2019-01-20T19:27:49.610Z,-2.00
2019-01-20T19:30:30.347Z,-2.00
2019-01-20T19:32:58.968Z,-2.20
2019-01-20T19:35:28.357Z,-2.30
2019-01-20T19:37:56.743Z,-2.40
2019-01-20T19:40:25.107Z,-2.40
2019-01-20T19:42:53.198Z,-2.30
2019-01-20T19:45:22.016Z,-2.30
2019-01-20T19:47:50.146Z,-2.30
2019-01-20T19:50:18.895Z,-2.20
2019-01-20T19:52:47.127Z,-2.30
2019-01-20T19:55:19.234Z,-2.30
2019-01-20T19:57:47.792Z,-2.40
2019-01-20T20:00:19.420Z,-2.40
2019-01-20T20:02:47.767Z,-2.40
2019-01-20T20:05:17.698Z,-2.40
2019-01-20T20:07:46.413Z,-2.30
2019-01-20T20:10:17.394Z,-2.30
2019-01-20T20:12:46.039Z,-2.30
2019-01-20T20:15:17.588Z,-2.30
2019-01-20T20:17:45.839Z,-2.30
2019-01-20T20:20:15.349Z,-2.30
2019-01-20T20:22:43.890Z,-2.30
2019-01-20T20:25:14.014Z,-2.20
2019-01-20T20:27:42.310Z,-2.20
2019-01-20T20:30:15.165Z,-2.20
2019-01-20T20:32:43.629Z,-2.20
2019-01-20T20:35:12.163Z,-2.20
2019-01-20T20:37:40.439Z,-2.20
2019-01-20T20:40:11.061Z,-2.20
2019-01-20T20:42:39.336Z,-2.20
2019-01-20T20:45:11.189Z,-2.30
2019-01-20T20:47:39.275Z,-2.30
2019-01-20T20:50:10.071Z,-2.30
2019-01-20T20:52:38.183Z,-2.30
2019-01-20T20:55:07.425Z,-2.30
2019-01-20T20:57:35.557Z,-2.30
2019-01-20T21:00:09.528Z,-2.40
2019-01-20T21:02:37.664Z,-2.50
2019-01-20T21:05:06.434Z,-2.50
2019-01-20T21:07:34.595Z,-2.50
2019-01-20T21:10:03.515Z,-2.50
2019-01-20T21:12:31.819Z,-2.50
2019-01-20T21:15:03.368Z,-2.60
2019-01-20T21:17:32.038Z,-2.70
2019-01-20T21:20:00.214Z,-2.80
2019-01-20T21:22:28.489Z,-2.80
2019-01-20T21:24:57.556Z,-2.70
2019-01-20T21:27:25.869Z,-2.80
2019-01-20T21:29:54.060Z,-2.70
2019-01-20T21:32:22.194Z,-2.70
2019-01-20T21:34:50.301Z,-2.60
2019-01-20T21:37:18.692Z,-2.40
2019-01-20T21:39:47.249Z,-2.50
2019-01-20T21:42:15.400Z,-2.50
2019-01-20T21:44:43.595Z,-2.50
2019-01-20T21:47:11.846Z,-2.50
2019-01-20T21:49:39.918Z,-2.50
2019-01-20T21:52:08.017Z,-2.50
2019-01-20T21:54:36.259Z,-2.60
2019-01-20T21:57:04.322Z,-2.60
2019-01-20T21:59:32.432Z,-2.70
2019-01-20T22:02:00.470Z,-2.70
2019-01-20T22:04:28.670Z,-2.50
2019-01-20T22:06:59.599Z,-1.60
2019-01-20T22:09:27.775Z,-0.90
2019-01-20T22:11:56.047Z,-0.70
2019-01-20T22:14:24.181Z,-0.80
2019-01-20T22:16:52.875Z,-1.10
2019-01-20T22:19:21.435Z,-1.40
2019-01-20T22:21:49.639Z,-1.60
2019-01-20T22:24:17.856Z,-1.80
2019-01-20T22:26:45.918Z,-1.90
2019-01-20T22:29:14.193Z,-2.10
2019-01-20T22:31:42.571Z,-2.20
2019-01-20T22:34:10.813Z,-2.30
2019-01-20T22:36:38.972Z,-2.30
2019-01-20T22:39:07.913Z,-2.40
2019-01-20T22:41:36.339Z,-2.50
2019-01-20T22:44:04.562Z,-2.50
2019-01-20T22:46:32.701Z,-2.50
2019-01-20T22:49:01.129Z,-2.50
2019-01-20T22:51:29.225Z,-2.50
2019-01-20T22:53:57.361Z,-2.50
2019-01-20T22:56:25.617Z,-2.50
2019-01-20T22:58:53.754Z,-2.70
2019-01-20T23:01:23.074Z,-2.70
2019-01-20T23:03:51.243Z,-2.60
2019-01-20T23:06:19.465Z,-2.60
2019-01-20T23:08:47.605Z,-2.60
2019-01-20T23:11:15.970Z,-2.60
2019-01-20T23:13:44.349Z,-2.60
2019-01-20T23:16:12.597Z,-2.60
2019-01-20T23:18:40.902Z,-2.60
2019-01-20T23:21:09.002Z,-2.60
2019-01-20T23:23:37.295Z,-2.60
2019-01-20T23:26:05.327Z,-2.60
2019-01-20T23:28:33.713Z,-2.50
2019-01-20T23:31:01.909Z,-2.50
2019-01-20T23:33:30.050Z,-2.50
2019-01-20T23:35:58.118Z,-2.50
2019-01-20T23:38:26.289Z,-2.50
2019-01-20T23:40:54.365Z,-2.50
2019-01-20T23:43:22.645Z,-2.50
2019-01-20T23:45:50.821Z,-2.50
2019-01-20T23:48:18.947Z,-2.50
2019-01-20T23:50:47.040Z,-2.40
2019-01-20T23:53:15.218Z,-2.40
2019-01-20T23:55:43.497Z,-2.40
2019-01-20T23:58:11.746Z,-2.40
